createdAt,value
2018-01-12T00:01:14.184Z,17.47
2018-01-12T00:03:40.764Z,19.70
2018-01-12T00:06:07.371Z,17.93
2018-01-12T00:08:33.952Z,18.67
2018-01-12T00:11:00.531Z,19.35
2018-01-12T00:13:27.418Z,18.37
2018-01-12T00:15:54.010Z,18.27
2018-01-12T00:18:20.587Z,17.90
2018-01-12T00:20:47.194Z,18.00
2018-01-12T00:23:13.771Z,18.60
2018-01-12T00:25:40.346Z,19.30
2018-01-12T00:28:06.936Z,18.40
2018-01-12T00:30:33.518Z,19.08
2018-01-12T00:33:00.102Z,20.17
2018-01-12T00:35:26.779Z,18.73
2018-01-12T00:37:53.367Z,19.90
2018-01-12T00:40:19.950Z,17.40
2018-01-12T00:42:46.567Z,18.52
2018-01-12T00:45:13.162Z,19.10
2018-01-12T00:47:39.736Z,17.70
2018-01-12T00:50:06.355Z,17.80
2018-01-12T00:52:32.934Z,17.73
2018-01-12T00:54:59.511Z,17.07
2018-01-12T00:57:26.125Z,16.50
2018-01-12T00:59:52.711Z,17.52
2018-01-12T01:02:19.306Z,18.20
2018-01-12T01:04:45.890Z,17.60
2018-01-12T01:07:12.494Z,16.60
2018-01-12T01:09:39.071Z,16.63
2018-01-12T01:12:05.647Z,15.83
2018-01-12T01:14:32.234Z,16.05
2018-01-12T01:16:58.816Z,16.30
2018-01-12T01:19:25.406Z,17.80
2018-01-12T01:21:52.029Z,25.30
2018-01-12T01:24:18.610Z,17.73
2018-01-12T01:26:45.188Z,16.60
2018-01-12T01:29:11.782Z,31.67
2018-01-12T01:31:38.370Z,18.37
2018-01-12T01:34:04.943Z,16.10
2018-01-12T01:36:31.567Z,15.98
2018-01-12T01:38:58.161Z,15.98
2018-01-12T01:41:24.746Z,17.12
2018-01-12T01:43:51.330Z,15.77
2018-01-12T01:46:17.929Z,17.12
2018-01-12T01:48:44.531Z,14.90
2018-01-12T01:51:11.114Z,15.32
2018-01-12T01:53:37.731Z,15.93
2018-01-12T01:56:04.322Z,15.02
2018-01-12T01:58:30.904Z,15.75
2018-01-12T02:00:57.883Z,14.77
2018-01-12T02:03:24.462Z,13.80
2018-01-12T02:05:51.051Z,14.05
2018-01-12T02:08:17.654Z,13.95
2018-01-12T02:10:44.242Z,13.38
2018-01-12T02:13:10.819Z,14.55
2018-01-12T02:15:37.422Z,14.73
2018-01-12T02:18:04.006Z,14.30
2018-01-12T02:20:30.599Z,13.05
2018-01-12T02:22:57.195Z,14.35
2018-01-12T02:25:23.779Z,14.20
2018-01-12T02:27:50.363Z,14.25
2018-01-12T02:30:16.971Z,15.10
2018-01-12T02:32:43.558Z,16.45
2018-01-12T02:35:10.147Z,15.35
2018-01-12T02:37:36.747Z,16.92
2018-01-12T02:40:03.361Z,17.08
2018-01-12T02:42:29.943Z,16.85
2018-01-12T02:44:56.534Z,18.45
2018-01-12T02:47:23.443Z,18.70
2018-01-12T02:49:50.034Z,18.25
2018-01-12T02:52:16.615Z,18.40
2018-01-12T02:54:43.220Z,19.20
2018-01-12T02:57:09.795Z,21.02
2018-01-12T02:59:36.383Z,21.37
2018-01-12T03:02:02.974Z,22.77
2018-01-12T03:04:29.558Z,20.88
2018-01-12T03:06:56.151Z,21.80
2018-01-12T03:09:22.993Z,21.95
2018-01-12T03:11:49.578Z,23.60
2018-01-12T03:14:16.158Z,24.35
2018-01-12T03:16:42.783Z,24.65
2018-01-12T03:19:09.363Z,25.60
2018-01-12T03:21:35.951Z,30.62
2018-01-12T03:24:02.884Z,25.25
2018-01-12T03:26:29.467Z,23.38
2018-01-12T03:28:56.051Z,25.35
2018-01-12T03:31:22.676Z,24.17
2018-01-12T03:33:49.263Z,25.65
2018-01-12T03:36:15.848Z,24.70
2018-01-12T03:38:42.426Z,26.33
2018-01-12T03:41:09.008Z,25.60
2018-01-12T03:43:35.872Z,26.77
2018-01-12T03:46:02.459Z,25.40
2018-01-12T03:48:29.043Z,27.45
2018-01-12T03:50:55.665Z,27.75
2018-01-12T03:53:22.247Z,28.48
2018-01-12T03:55:48.828Z,27.95
2018-01-12T03:58:15.414Z,28.27
2018-01-12T04:00:42.020Z,29.33
2018-01-12T04:03:08.603Z,29.30
2018-01-12T04:05:35.192Z,34.17
2018-01-12T04:08:01.791Z,32.42
2018-01-12T04:10:28.378Z,31.62
2018-01-12T04:12:54.964Z,40.40
2018-01-12T04:15:21.552Z,33.60
2018-01-12T04:17:48.464Z,33.28
2018-01-12T04:20:15.053Z,32.15
2018-01-12T04:22:41.635Z,32.05
2018-01-12T04:25:08.229Z,36.85
2018-01-12T04:27:34.807Z,33.20
2018-01-12T04:30:01.400Z,31.62
2018-01-12T04:32:28.015Z,35.17
2018-01-12T04:34:54.600Z,35.53
2018-01-12T04:37:21.188Z,33.45
2018-01-12T04:39:47.774Z,31.33
2018-01-12T04:42:14.724Z,33.35
2018-01-12T04:44:41.307Z,31.90
2018-01-12T04:47:07.895Z,49.90
2018-01-12T04:49:34.491Z,36.00
2018-01-12T04:52:01.146Z,37.85
2018-01-12T04:54:27.711Z,30.73
2018-01-12T04:56:54.540Z,30.42
2018-01-12T04:59:21.132Z,32.13
2018-01-12T05:01:47.727Z,31.48
2018-01-12T05:04:14.343Z,34.30
2018-01-12T05:06:40.940Z,31.90
2018-01-12T05:09:07.526Z,29.42
2018-01-12T05:11:34.128Z,27.08
2018-01-12T05:14:00.721Z,33.15
2018-01-12T05:16:27.309Z,28.87
2018-01-12T05:18:53.919Z,27.70
2018-01-12T05:21:20.509Z,29.45
2018-01-12T05:23:47.102Z,31.12
2018-01-12T05:26:13.726Z,29.05
2018-01-12T05:28:40.306Z,29.02
2018-01-12T05:31:06.893Z,29.42
2018-01-12T05:33:33.488Z,27.42
2018-01-12T05:36:00.077Z,28.60
2018-01-12T05:38:26.715Z,28.65
2018-01-12T05:40:53.303Z,27.60
2018-01-12T05:43:19.890Z,26.60
2018-01-12T05:45:46.480Z,32.20
2018-01-12T05:48:13.066Z,27.55
2018-01-12T05:50:39.859Z,24.52
2018-01-12T05:53:06.468Z,27.70
2018-01-12T05:55:33.061Z,25.80
2018-01-12T05:57:59.656Z,27.45
2018-01-12T06:00:26.234Z,26.48
2018-01-12T06:02:58.742Z,24.65
2018-01-12T06:05:31.408Z,26.87
2018-01-12T06:07:58.019Z,27.25
2018-01-12T06:10:24.603Z,23.90
2018-01-12T06:12:51.188Z,25.75
2018-01-12T06:15:17.799Z,25.15
2018-01-12T06:17:44.379Z,26.85
2018-01-12T06:20:10.958Z,26.45
2018-01-12T06:22:37.586Z,28.98
2018-01-12T06:25:04.171Z,26.80
2018-01-12T06:27:30.751Z,28.58
2018-01-12T06:29:57.350Z,29.15
2018-01-12T06:32:23.948Z,27.15
2018-01-12T06:34:50.535Z,27.77
2018-01-12T06:37:17.127Z,27.73
2018-01-12T06:39:43.731Z,29.65
2018-01-12T06:42:10.310Z,29.10
2018-01-12T06:44:36.894Z,27.00
2018-01-12T06:47:03.475Z,29.73
2018-01-12T06:49:30.114Z,27.80
2018-01-12T06:51:56.973Z,27.90
2018-01-12T06:54:23.555Z,30.83
2018-01-12T06:56:50.143Z,29.37
2018-01-12T06:59:17.104Z,29.45
2018-01-12T07:01:43.780Z,31.80
2018-01-12T07:04:10.368Z,29.73
2018-01-12T07:06:37.006Z,28.15
2018-01-12T07:09:03.605Z,32.45
2018-01-12T07:11:30.194Z,30.88
2018-01-12T07:13:56.786Z,31.20
2018-01-12T07:16:23.375Z,30.75
2018-01-12T07:18:49.982Z,28.80
2018-01-12T07:21:22.855Z,31.70
2018-01-12T07:23:49.479Z,32.13
2018-01-12T07:26:16.063Z,29.95
2018-01-12T07:28:42.651Z,33.08
2018-01-12T07:31:09.240Z,33.95
2018-01-12T07:33:35.828Z,30.35
2018-01-12T07:36:02.417Z,32.63
2018-01-12T07:38:28.995Z,36.03
2018-01-12T07:40:55.567Z,32.45
2018-01-12T07:43:22.175Z,31.25
2018-01-12T07:45:48.759Z,33.03
2018-01-12T07:48:15.338Z,32.58
2018-01-12T07:50:41.955Z,35.28
2018-01-12T07:53:14.232Z,32.53
2018-01-12T07:55:40.815Z,31.80
2018-01-12T07:58:07.711Z,33.97
2018-01-12T08:00:39.942Z,33.15
2018-01-12T08:03:06.523Z,34.05
2018-01-12T08:05:33.458Z,33.10
2018-01-12T08:08:00.052Z,34.72
2018-01-12T08:10:26.627Z,33.90
2018-01-12T08:12:53.214Z,32.60
2018-01-12T08:15:19.794Z,34.30
2018-01-12T08:17:46.383Z,32.92
2018-01-12T08:20:12.998Z,34.00
2018-01-12T08:22:39.587Z,33.78
2018-01-12T08:25:06.165Z,32.35
2018-01-12T08:27:32.979Z,34.63
2018-01-12T08:29:59.563Z,34.50
2018-01-12T08:32:26.138Z,34.70
2018-01-12T08:34:52.834Z,34.33
2018-01-12T08:37:19.418Z,34.55
2018-01-12T08:39:46.000Z,34.45
2018-01-12T08:42:12.590Z,35.47
2018-01-12T08:44:39.176Z,39.42
2018-01-12T08:47:05.766Z,40.20
2018-01-12T08:49:32.390Z,36.13
2018-01-12T08:51:58.976Z,43.20
2018-01-12T08:54:25.564Z,34.15
2018-01-12T08:56:52.168Z,34.35
2018-01-12T08:59:18.743Z,34.05
2018-01-12T09:01:45.331Z,34.42
2018-01-12T09:04:11.931Z,33.15
2018-01-12T09:06:38.506Z,35.03
2018-01-12T09:09:05.094Z,35.90
2018-01-12T09:11:31.718Z,34.67
2018-01-12T09:13:58.306Z,33.13
2018-01-12T09:16:26.838Z,32.10
2018-01-12T09:18:59.434Z,33.90
2018-01-12T09:21:26.027Z,33.03
2018-01-12T09:23:54.351Z,32.85
2018-01-12T09:26:20.926Z,32.72
2018-01-12T09:28:47.534Z,33.85
2018-01-12T09:31:14.929Z,39.13
2018-01-12T09:33:47.351Z,35.40
2018-01-12T09:36:13.930Z,34.30
2018-01-12T09:38:46.754Z,33.33
2018-01-12T09:41:13.338Z,33.20
2018-01-12T09:43:39.930Z,35.85
2018-01-12T09:46:06.831Z,35.67
2018-01-12T09:48:33.424Z,34.13
2018-01-12T09:51:00.015Z,34.65
2018-01-12T09:53:26.654Z,34.30
2018-01-12T09:55:53.210Z,34.85
2018-01-12T09:58:19.800Z,33.92
2018-01-12T10:01:00.281Z,33.67
2018-01-12T10:03:26.866Z,34.85
2018-01-12T10:05:53.475Z,36.13
2018-01-12T10:08:23.814Z,33.25
2018-01-12T10:10:50.399Z,33.55
2018-01-12T10:13:17.003Z,35.45
2018-01-12T10:15:43.582Z,33.22
2018-01-12T10:18:28.053Z,35.53
2018-01-12T10:20:54.598Z,34.55
2018-01-12T10:23:21.178Z,34.72
2018-01-12T10:25:48.026Z,37.22
2018-01-12T10:28:14.613Z,36.00
2018-01-12T10:30:57.949Z,36.25
2018-01-12T10:33:45.443Z,34.95
2018-01-12T10:36:17.880Z,34.13
2018-01-12T10:38:44.499Z,34.55
2018-01-12T10:41:16.956Z,34.88
2018-01-12T10:43:43.549Z,35.50
2018-01-12T10:46:16.142Z,36.15
2018-01-12T10:48:58.515Z,33.88
2018-01-12T10:51:31.114Z,35.10
2018-01-12T10:53:57.722Z,36.88
2018-01-12T10:56:24.307Z,34.78
2018-01-12T10:58:50.895Z,35.47
2018-01-12T11:01:17.488Z,35.38
2018-01-12T11:03:44.070Z,35.10
2018-01-12T11:06:10.791Z,36.13
2018-01-12T11:08:37.383Z,37.75
2018-01-12T11:11:03.976Z,36.58
2018-01-12T11:13:30.915Z,38.38
2018-01-12T11:15:57.498Z,39.63
2018-01-12T11:18:24.100Z,37.33
2018-01-12T11:20:50.693Z,36.60
2018-01-12T11:23:17.283Z,36.45
2018-01-12T11:25:43.875Z,34.70
2018-01-12T11:28:10.483Z,38.70
2018-01-12T11:30:37.072Z,34.35
2018-01-12T11:33:03.668Z,39.35
2018-01-12T11:35:30.274Z,36.42
2018-01-12T11:37:56.864Z,36.25
2018-01-12T11:40:23.627Z,35.72
2018-01-12T11:42:50.217Z,32.50
2018-01-12T11:45:16.794Z,34.95
2018-01-12T11:47:43.402Z,37.63
2018-01-12T11:50:10.035Z,34.55
2018-01-12T11:52:36.624Z,35.30
2018-01-12T11:55:03.332Z,34.40
2018-01-12T11:57:29.930Z,34.10
2018-01-12T11:59:56.528Z,34.42
2018-01-12T12:02:23.322Z,35.10
2018-01-12T12:04:49.902Z,33.30
2018-01-12T12:07:16.495Z,35.25
2018-01-12T12:09:43.105Z,32.33
2018-01-12T12:12:09.683Z,32.85
2018-01-12T12:14:36.271Z,32.60
2018-01-12T12:17:02.856Z,31.27
2018-01-12T12:19:29.445Z,31.42
2018-01-12T12:21:56.130Z,32.63
2018-01-12T12:24:22.720Z,34.33
2018-01-12T12:26:49.300Z,34.03
2018-01-12T12:29:15.903Z,33.30
2018-01-12T12:31:42.488Z,32.17
2018-01-12T12:34:09.102Z,33.03
2018-01-12T12:36:35.757Z,31.98
2018-01-12T12:39:02.335Z,31.52
2018-01-12T12:41:28.920Z,29.12
2018-01-12T12:43:55.531Z,30.40
2018-01-12T12:46:22.110Z,31.42
2018-01-12T12:48:48.697Z,29.00
2018-01-12T12:51:15.308Z,30.40
2018-01-12T12:53:41.883Z,29.23
2018-01-12T12:56:08.473Z,30.73
2018-01-12T12:58:35.084Z,29.48
2018-01-12T13:01:01.663Z,27.40
2018-01-12T13:03:28.251Z,29.58
2018-01-12T13:05:55.142Z,29.83
2018-01-12T13:08:21.734Z,29.45
2018-01-12T13:10:48.324Z,32.17
2018-01-12T13:13:14.919Z,27.37
2018-01-12T13:15:41.521Z,29.75
2018-01-12T13:18:08.110Z,31.58
2018-01-12T13:20:34.714Z,30.92
2018-01-12T13:23:01.300Z,29.30
2018-01-12T13:25:27.884Z,30.12
2018-01-12T13:27:54.762Z,28.23
2018-01-12T13:30:21.342Z,29.55
2018-01-12T13:32:47.926Z,30.77
2018-01-12T13:35:14.690Z,28.70
2018-01-12T13:37:41.284Z,27.13
2018-01-12T13:40:07.866Z,24.52
2018-01-12T13:42:34.471Z,28.20
2018-01-12T13:45:01.049Z,27.40
2018-01-12T13:47:27.638Z,26.35
2018-01-12T13:49:54.223Z,26.85
2018-01-12T13:52:20.883Z,28.75
2018-01-12T13:54:47.420Z,27.70
2018-01-12T13:57:13.999Z,29.10
2018-01-12T13:59:40.590Z,27.73
2018-01-12T14:02:07.199Z,23.40
2018-01-12T14:04:33.782Z,26.55
2018-01-12T14:07:00.368Z,24.92
2018-01-12T14:09:26.975Z,26.37
2018-01-12T14:11:53.559Z,28.20
2018-01-12T14:14:20.142Z,27.37
2018-01-12T14:16:46.730Z,28.27
2018-01-12T14:19:13.318Z,27.10
2018-01-12T14:21:39.902Z,26.87
2018-01-12T14:24:06.880Z,26.50
2018-01-12T14:26:33.470Z,26.48
2018-01-12T14:29:01.079Z,27.52
2018-01-12T14:31:28.026Z,25.80
2018-01-12T14:33:54.606Z,26.05
2018-01-12T14:36:21.191Z,25.27
2018-01-12T14:38:48.131Z,28.87
2018-01-12T14:41:14.714Z,28.02
2018-01-12T14:43:41.298Z,27.17
2018-01-12T14:46:07.891Z,26.00
2018-01-12T14:48:34.479Z,26.83
2018-01-12T14:51:01.063Z,23.50
2018-01-12T14:53:27.651Z,25.45
2018-01-12T14:55:54.235Z,22.27
2018-01-12T14:58:20.824Z,22.65
2018-01-12T15:00:47.446Z,24.58
2018-01-12T15:03:14.019Z,25.77
2018-01-12T15:05:40.604Z,24.23
2018-01-12T15:08:07.290Z,22.25
2018-01-12T15:10:33.874Z,25.60
2018-01-12T15:13:00.466Z,20.50
2018-01-12T15:15:27.258Z,24.20
2018-01-12T15:17:53.846Z,21.52
2018-01-12T15:20:20.430Z,22.40
2018-01-12T15:22:47.046Z,23.12
2018-01-12T15:25:13.619Z,22.30
2018-01-12T15:27:40.212Z,24.40
2018-01-12T15:30:06.811Z,21.67
2018-01-12T15:32:33.396Z,23.15
2018-01-12T15:34:59.984Z,22.58
2018-01-12T15:37:26.571Z,27.25
2018-01-12T15:39:53.159Z,23.60
2018-01-12T15:42:19.771Z,23.67
2018-01-12T15:44:46.356Z,21.27
2018-01-12T15:47:12.944Z,21.52
2018-01-12T15:49:39.530Z,23.02
2018-01-12T15:52:06.110Z,24.83
2018-01-12T15:54:32.700Z,21.98
2018-01-12T15:56:59.287Z,22.52
2018-01-12T15:59:25.876Z,19.87
2018-01-12T16:01:52.710Z,23.27
2018-01-12T16:04:19.298Z,20.73
2018-01-12T16:06:45.882Z,20.27
2018-01-12T16:09:12.488Z,19.10
2018-01-12T16:11:39.068Z,19.37
2018-01-12T16:14:05.646Z,20.37
2018-01-12T16:16:32.499Z,20.60
2018-01-12T16:18:59.082Z,18.80
2018-01-12T16:21:25.677Z,18.87
2018-01-12T16:23:52.282Z,18.42
2018-01-12T16:26:18.865Z,18.58
2018-01-12T16:28:45.447Z,18.25
2018-01-12T16:31:12.251Z,19.73
2018-01-12T16:33:38.840Z,18.92
2018-01-12T16:36:05.437Z,20.52
2018-01-12T16:38:32.014Z,19.40
2018-01-12T16:40:58.599Z,19.20
2018-01-12T16:43:25.187Z,18.52
2018-01-12T16:45:51.776Z,19.30
2018-01-12T16:48:18.347Z,20.70
2018-01-12T16:50:44.947Z,17.35
2018-01-12T16:53:11.534Z,17.87
2018-01-12T16:55:38.115Z,19.55
2018-01-12T16:58:04.745Z,18.35
2018-01-12T17:00:31.324Z,18.50
2018-01-12T17:02:57.907Z,19.73
2018-01-12T17:05:24.501Z,19.08
2018-01-12T17:07:51.084Z,20.20
2018-01-12T17:10:17.666Z,17.98
2018-01-12T17:12:44.461Z,20.05
2018-01-12T17:15:11.062Z,18.60
2018-01-12T17:17:37.621Z,19.85
2018-01-12T17:20:04.336Z,18.90
2018-01-12T17:22:30.918Z,20.85
2018-01-12T17:24:57.498Z,20.20
2018-01-12T17:27:24.098Z,17.87
2018-01-12T17:29:50.687Z,21.05
2018-01-12T17:32:17.270Z,17.80
2018-01-12T17:34:44.071Z,19.23
2018-01-12T17:37:10.660Z,18.35
2018-01-12T17:39:37.247Z,18.67
2018-01-12T17:42:03.926Z,19.10
2018-01-12T17:44:30.514Z,19.67
2018-01-12T17:46:57.095Z,19.33
2018-01-12T17:49:24.004Z,20.08
2018-01-12T17:51:50.569Z,19.52
2018-01-12T17:54:17.151Z,18.65
2018-01-12T17:56:43.744Z,18.80
2018-01-12T17:59:10.330Z,20.40
2018-01-12T18:01:36.911Z,18.95
2018-01-12T18:04:03.515Z,19.58
2018-01-12T18:06:30.110Z,17.90
2018-01-12T18:08:56.699Z,21.00
2018-01-12T18:11:23.280Z,19.80
2018-01-12T18:13:49.915Z,19.25
2018-01-12T18:16:16.498Z,18.98
2018-01-12T18:18:43.087Z,19.27
2018-01-12T18:21:09.704Z,19.65
2018-01-12T18:23:36.287Z,19.00
2018-01-12T18:26:02.866Z,20.08
2018-01-12T18:28:29.467Z,20.55
2018-01-12T18:30:56.051Z,20.67
2018-01-12T18:33:22.623Z,20.58
2018-01-12T18:35:49.218Z,19.80
2018-01-12T18:38:15.802Z,20.27
2018-01-12T18:40:42.387Z,19.20
2018-01-12T18:43:08.990Z,21.42
2018-01-12T18:45:35.581Z,21.00
2018-01-12T18:48:02.251Z,21.08
2018-01-12T18:53:02.141Z,21.65
2018-01-12T18:55:28.723Z,21.15
2018-01-12T18:57:55.323Z,20.67
2018-01-12T19:00:21.907Z,20.80
2018-01-12T19:02:48.488Z,21.55
2018-01-12T19:05:15.083Z,19.73
2018-01-12T19:07:41.695Z,21.30
2018-01-12T19:10:08.289Z,21.10
2018-01-12T19:12:34.868Z,20.70
2018-01-12T19:15:01.451Z,20.85
2018-01-12T19:17:28.752Z,22.48
2018-01-12T19:19:55.345Z,21.40
2018-01-12T19:22:21.924Z,23.10
2018-01-12T19:24:48.835Z,20.33
2018-01-12T19:27:15.415Z,21.33
2018-01-12T19:29:41.998Z,23.60
2018-01-12T19:32:08.582Z,22.20
2018-01-12T19:34:35.170Z,22.85
2018-01-12T19:37:01.746Z,24.95
2018-01-12T19:39:28.346Z,20.83
2018-01-12T19:41:54.926Z,23.70
2018-01-12T19:44:21.510Z,25.02
2018-01-12T19:46:48.469Z,23.73
2018-01-12T19:49:15.052Z,24.27
2018-01-12T19:51:41.634Z,25.62
2018-01-12T19:54:08.352Z,22.60
2018-01-12T19:56:34.917Z,23.45
2018-01-12T19:59:01.494Z,23.90
2018-01-12T20:01:28.082Z,23.10
2018-01-12T20:03:54.704Z,22.17
2018-01-12T20:06:21.298Z,24.60
2018-01-12T20:08:47.878Z,23.08
2018-01-12T20:11:14.562Z,23.45
2018-01-12T20:13:41.156Z,22.10
2018-01-12T20:16:07.730Z,23.75
2018-01-12T20:18:34.627Z,25.08
2018-01-12T20:21:01.211Z,23.42
2018-01-12T20:23:27.803Z,23.20
2018-01-12T20:25:54.414Z,22.10
2018-01-12T20:28:21.020Z,26.00
2018-01-12T20:30:47.613Z,23.70
2018-01-12T20:33:14.159Z,22.10
2018-01-12T20:35:40.760Z,22.62
2018-01-12T20:38:07.342Z,24.98
2018-01-12T20:40:33.932Z,22.52
2018-01-12T20:43:00.553Z,23.65
2018-01-12T20:45:27.131Z,22.80
2018-01-12T20:47:53.714Z,24.02
2018-01-12T20:50:20.302Z,22.48
2018-01-12T20:52:46.878Z,23.87
2018-01-12T20:55:14.285Z,23.20
2018-01-12T20:57:40.867Z,23.60
2018-01-12T21:00:07.452Z,23.58
2018-01-12T21:02:34.043Z,22.27
2018-01-12T21:05:00.620Z,22.92
2018-01-12T21:07:27.456Z,24.08
2018-01-12T21:09:54.030Z,22.40
2018-01-12T21:12:20.610Z,22.62
2018-01-12T21:14:47.236Z,23.12
2018-01-12T21:17:13.840Z,21.95
2018-01-12T21:19:40.402Z,25.35
2018-01-12T21:22:06.983Z,23.58
2018-01-12T21:24:33.571Z,24.02
2018-01-12T21:27:00.434Z,23.27
2018-01-12T21:29:27.011Z,24.87
2018-01-12T21:31:53.602Z,26.85
2018-01-12T21:34:20.192Z,22.13
2018-01-12T21:36:46.781Z,24.02
2018-01-12T21:39:13.355Z,23.50
2018-01-12T21:41:39.965Z,24.30
2018-01-12T21:44:06.547Z,25.67
2018-01-12T21:46:33.179Z,23.65
2018-01-12T21:48:59.744Z,23.90
2018-01-12T21:51:26.385Z,26.87
2018-01-12T21:53:52.943Z,22.87
2018-01-12T21:56:19.698Z,21.92
2018-01-12T21:58:46.287Z,24.17
2018-01-12T22:01:12.859Z,22.70
2018-01-12T22:03:39.445Z,25.42
2018-01-12T22:06:06.023Z,22.92
2018-01-12T22:08:32.608Z,24.75
2018-01-12T22:10:59.294Z,23.42
2018-01-12T22:13:25.867Z,25.58
2018-01-12T22:15:52.453Z,25.33
2018-01-12T22:18:19.035Z,24.90
2018-01-12T22:20:45.620Z,26.70
2018-01-12T22:23:12.198Z,25.85
2018-01-12T22:25:38.786Z,23.92
2018-01-12T22:28:05.372Z,24.77
2018-01-12T22:30:31.954Z,25.30
2018-01-12T22:32:58.891Z,24.48
2018-01-12T22:35:25.478Z,24.65
2018-01-12T22:37:52.055Z,26.02
2018-01-12T22:40:19.551Z,23.77
2018-01-12T22:42:46.132Z,23.85
2018-01-12T22:45:12.715Z,22.87
2018-01-12T22:47:39.307Z,24.58
2018-01-12T22:50:05.878Z,22.55
2018-01-12T22:52:32.468Z,23.00
2018-01-12T22:54:59.053Z,22.90
2018-01-12T22:57:25.642Z,22.52
2018-01-12T22:59:52.215Z,24.65
2018-01-12T23:02:18.830Z,24.05
2018-01-12T23:04:45.417Z,26.27
2018-01-12T23:07:11.998Z,24.08
2018-01-12T23:09:38.591Z,23.35
2018-01-12T23:12:05.174Z,25.35
2018-01-12T23:14:31.752Z,24.95
2018-01-12T23:16:58.343Z,24.48
2018-01-12T23:19:24.926Z,24.55
2018-01-12T23:21:51.511Z,23.15
2018-01-12T23:24:18.090Z,23.80
2018-01-12T23:26:44.679Z,23.20
2018-01-12T23:29:11.520Z,23.15
2018-01-12T23:31:38.103Z,23.83
2018-01-12T23:34:04.690Z,24.37
2018-01-12T23:36:31.302Z,28.12
2018-01-12T23:38:57.874Z,25.20
2018-01-12T23:41:24.455Z,22.83
2018-01-12T23:43:51.047Z,22.23
2018-01-12T23:46:17.639Z,20.80
2018-01-12T23:48:44.218Z,25.02
2018-01-12T23:51:10.810Z,23.55
2018-01-12T23:53:37.387Z,24.75
2018-01-12T23:56:03.968Z,23.90
2018-01-12T23:58:30.562Z,20.75
